F/V Le Natif 2 — FKVW — position and weather

sailwx.info

Track history (hours):
 
Tides and Currents Weather Stations Pressure Air Temp Water Temp Dewpoint Dewpoint Depression Visibility Wind Speed Wind Dir Waves Ship Positions

F/V Le Natif 2

Last reported at 2016-Jun-24 22:33 UTC. Time now 2016-Jun-26 02:52 UTC.
Position N 47°14' W 003°45'.

Length 16 m.

Type: Fishing. MMSI: 228131600.

Date/timePositionNaut miles runAvg speedWind from/ knotsBaromVisibWave heightAir tempDewpointWater temp
2016-Jun-24 22:33N 47°14' W 003°45'9 9.3
2016-Jun-24 21:33N 47°14' W 003°31'9 8.9
2016-Jun-24 20:33N 47°15' W 003°19'9 8.9
2016-Jun-24 19:33N 47°15' W 003°05'9 8.8
2016-Jun-24 18:33N 47°17' W 002°53'8 8.5
2016-Jun-24 17:33N 47°19' W 002°40'7 6.8
2016-Jun-24 16:33N 47°21' W 002°31'0 0.0
2016-Jun-24 15:33N 47°21' W 002°31'  
2016-Jun-21 23:33N 47°21' W 002°31'0 0.0
2016-Jun-21 22:34N 47°21' W 002°31'0 0.1
2016-Jun-21 21:33N 47°21' W 002°31'0 0.0
2016-Jun-21 20:33N 47°21' W 002°31'8 7.8
2016-Jun-21 19:33N 47°15' W 002°38'9 9.3
2016-Jun-21 18:33N 47°09' W 002°48'9 9.4
2016-Jun-21 17:33N 47°02' W 002°58'18 1.7
2016-Jun-21 07:18N 46°51' W 003°19'26 9.3
2016-Jun-21 04:33N 47°08' W 002°50'9 8.9
2016-Jun-21 03:33N 47°13' W 002°40'8 8.4
2016-Jun-21 02:34N 47°20' W 002°32'2 1.6
2016-Jun-21 01:33N 47°21' W 002°31'1 1.4
2016-Jun-21 00:33N 47°20' W 002°32'1010.3
2016-Jun-20 23:33N 47°12' W 002°42'10 9.7
2016-Jun-20 22:33N 47°06' W 002°53'9 9.4
2016-Jun-20 21:33N 46°59' W 003°03'10 9.0
2016-Jun-20 20:29N 46°53' W 003°14'10 8.2
2016-Jun-20 19:15N 46°47' W 003°25'7 1.0
2016-Jun-20 12:15N 46°52' W 003°18'5 7.2
2016-Jun-20 11:30N 46°55' W 003°12'7 7.2
2016-Jun-20 10:33N 46°60' W 003°04'7 7.3
2016-Jun-20 09:33N 47°04' W 002°56'8 7.7
2016-Jun-20 08:33N 47°09' W 002°47'8 8.3
2016-Jun-20 07:33N 47°15' W 002°38'8 7.7
2016-Jun-20 06:33N 47°21' W 002°31'0 0.3
2016-Jun-20 05:33N 47°21' W 002°31'0 0.1
2016-Jun-20 04:33N 47°21' W 002°31'0 0.0
2016-Jun-20 03:33N 47°21' W 002°31'6 6.2
2016-Jun-20 02:33N 47°16' W 002°37'1010.2
2016-Jun-20 01:33N 47°08' W 002°46'1010.3
2016-Jun-20 00:33N 47°00' W 002°56'1010.0
2016-Jun-19 23:32N 46°53' W 003°06'14 9.7
2016-Jun-19 22:05N 46°42' W 003°19'17 0.4
2016-Jun-17 21:12N 46°59' W 003°25'5 7.7
2016-Jun-17 20:33N 47°01' W 003°18'8 7.9
2016-Jun-17 19:33N 47°06' W 003°09'8 7.9
2016-Jun-17 18:33N 47°10' W 002°59'8 8.3
2016-Jun-17 17:33N 47°15' W 002°49'9 8.6
2016-Jun-17 16:33N 47°19' W 002°38'5 5.2
2016-Jun-17 15:33N 47°21' W 002°31'0 0.0
2016-Jun-17 01:33N 47°21' W 002°31'0 0.0
2016-Jun-17 00:33N 47°21' W 002°31'0 0.0
2016-Jun-16 23:33N 47°21' W 002°31'0 0.0
2016-Jun-16 22:33N 47°21' W 002°31'5 4.7
2016-Jun-16 21:34N 47°17' W 002°35'9 9.3
2016-Jun-16 20:33N 47°10' W 002°44'10 9.5
2016-Jun-16 19:33N 47°03' W 002°54'9 9.2
2016-Jun-16 18:33N 46°57' W 003°04'  
Track history (hours):
 
Tides and Currents Weather Stations Pressure Air Temp Water Temp Dewpoint Dewpoint Depression Visibility Wind Speed Wind Dir Waves Ship Positions

F/V Le Natif 2

Last reported at 2016-Jun-24 22:33 UTC. Time now 2016-Jun-26 02:52 UTC.
Position N 47°14' W 003°45'.

Length 16 m.

Type: Fishing. MMSI: 228131600.

Date/timePositionNaut miles runAvg speedWind from/ knotsBaromVisibWave heightAir tempDewpointWater temp
2016-Jun-24 22:33N 47°14' W 003°45'9 9.3
2016-Jun-24 21:33N 47°14' W 003°31'9 8.9
2016-Jun-24 20:33N 47°15' W 003°19'9 8.9
2016-Jun-24 19:33N 47°15' W 003°05'9 8.8
2016-Jun-24 18:33N 47°17' W 002°53'8 8.5
2016-Jun-24 17:33N 47°19' W 002°40'7 6.8
2016-Jun-24 16:33N 47°21' W 002°31'0 0.0
2016-Jun-24 15:33N 47°21' W 002°31'  
2016-Jun-21 23:33N 47°21' W 002°31'0 0.0
2016-Jun-21 22:34N 47°21' W 002°31'0 0.1
2016-Jun-21 21:33N 47°21' W 002°31'0 0.0
2016-Jun-21 20:33N 47°21' W 002°31'8 7.8
2016-Jun-21 19:33N 47°15' W 002°38'9 9.3
2016-Jun-21 18:33N 47°09' W 002°48'9 9.4
2016-Jun-21 17:33N 47°02' W 002°58'18 1.7
2016-Jun-21 07:18N 46°51' W 003°19'26 9.3
2016-Jun-21 04:33N 47°08' W 002°50'9 8.9
2016-Jun-21 03:33N 47°13' W 002°40'8 8.4
2016-Jun-21 02:34N 47°20' W 002°32'2 1.6
2016-Jun-21 01:33N 47°21' W 002°31'1 1.4
2016-Jun-21 00:33N 47°20' W 002°32'1010.3
2016-Jun-20 23:33N 47°12' W 002°42'10 9.7
2016-Jun-20 22:33N 47°06' W 002°53'9 9.4
2016-Jun-20 21:33N 46°59' W 003°03'10 9.0
2016-Jun-20 20:29N 46°53' W 003°14'10 8.2
2016-Jun-20 19:15N 46°47' W 003°25'7 1.0
2016-Jun-20 12:15N 46°52' W 003°18'5 7.2
2016-Jun-20 11:30N 46°55' W 003°12'7 7.2
2016-Jun-20 10:33N 46°60' W 003°04'7 7.3
2016-Jun-20 09:33N 47°04' W 002°56'8 7.7
2016-Jun-20 08:33N 47°09' W 002°47'8 8.3
2016-Jun-20 07:33N 47°15' W 002°38'8 7.7
2016-Jun-20 06:33N 47°21' W 002°31'0 0.3
2016-Jun-20 05:33N 47°21' W 002°31'0 0.1
2016-Jun-20 04:33N 47°21' W 002°31'0 0.0
2016-Jun-20 03:33N 47°21' W 002°31'6 6.2
2016-Jun-20 02:33N 47°16' W 002°37'1010.2
2016-Jun-20 01:33N 47°08' W 002°46'1010.3
2016-Jun-20 00:33N 47°00' W 002°56'1010.0
2016-Jun-19 23:32N 46°53' W 003°06'14 9.7
2016-Jun-19 22:05N 46°42' W 003°19'17 0.4
2016-Jun-17 21:12N 46°59' W 003°25'5 7.7
2016-Jun-17 20:33N 47°01' W 003°18'8 7.9
2016-Jun-17 19:33N 47°06' W 003°09'8 7.9
2016-Jun-17 18:33N 47°10' W 002°59'8 8.3
2016-Jun-17 17:33N 47°15' W 002°49'9 8.6
2016-Jun-17 16:33N 47°19' W 002°38'5 5.2
2016-Jun-17 15:33N 47°21' W 002°31'0 0.0
2016-Jun-17 01:33N 47°21' W 002°31'0 0.0
2016-Jun-17 00:33N 47°21' W 002°31'0 0.0
2016-Jun-16 23:33N 47°21' W 002°31'0 0.0
2016-Jun-16 22:33N 47°21' W 002°31'5 4.7
2016-Jun-16 21:34N 47°17' W 002°35'9 9.3
2016-Jun-16 20:33N 47°10' W 002°44'10 9.5
2016-Jun-16 19:33N 47°03' W 002°54'9 9.2
2016-Jun-16 18:33N 46°57' W 003°04'  

Dump ship's entire track history